Time;durP1;ratioP1;P1;durP2;ratioP2;P2;SDS_P1;SDS_P2;PMS_P1;PMS_P2;Temp;Humidity;BMP_temperature;BMP_pressure;BME280_temperature;BME280_humidity;BME280_pressure;Samples;Min_cycle;Max_cycle;Signal;HPM_P1;HPM_P2
2022/09/19 00:01:33;;;;;;;15.20;14.60;;;10.20;90.00;;;;;;5026745;28;20470;-74
2022/09/19 00:04:02;;;;;;;14.53;13.90;;;10.20;89.90;;;;;;5035857;28;20999;-72
2022/09/19 00:06:31;;;;;;;16.33;15.60;;;10.30;89.10;;;;;;5020035;28;20975;-71
2022/09/19 00:08:59;;;;;;;15.40;14.80;;;10.20;88.30;;;;;;5024658;28;20889;-71
2022/09/19 00:11:27;;;;;;;15.37;14.77;;;10.10;89.00;;;;;;5026813;28;20607;-71
2022/09/19 00:13:57;;;;;;;15.50;14.90;;;10.00;88.20;;;;;;5036019;28;20827;-71
2022/09/19 00:16:26;;;;;;;16.10;15.40;;;9.90;88.70;;;;;;5026812;28;20458;-71
2022/09/19 00:18:54;;;;;;;15.27;14.67;;;10.00;89.10;;;;;;5025241;28;20476;-71
2022/09/19 00:21:23;;;;;;;15.10;14.50;;;10.00;89.40;;;;;;5024670;28;20453;-71
2022/09/19 00:26:35;;;;;;;14.77;14.20;;;10.00;89.30;;;;;;5028110;28;20203;-71
2022/09/19 00:29:04;;;;;;;15.40;14.80;;;9.90;89.60;;;;;;5025732;28;20494;-71
2022/09/19 00:31:31;;;;;;;14.93;14.33;;;9.90;89.80;;;;;;5023621;28;20467;-71
2022/09/19 00:33:58;;;;;;;15.50;14.90;;;9.90;90.00;;;;;;5025215;28;20495;-71
2022/09/19 00:36:25;;;;;;;15.60;14.90;;;9.80;90.20;;;;;;5027690;28;20199;-71
2022/09/19 00:38:52;;;;;;;15.10;14.50;;;9.80;90.20;;;;;;5020956;28;20889;-72
2022/09/19 00:41:21;;;;;;;15.17;14.57;;;9.70;90.60;;;;;;5028884;28;20464;-71
2022/09/19 00:43:51;;;;;;;14.43;13.93;;;9.70;90.70;;;;;;5026074;28;21238;-71
2022/09/19 00:46:21;;;;;;;15.30;14.70;;;9.80;90.60;;;;;;5028405;28;20537;-70
2022/09/19 00:48:52;;;;;;;15.43;14.83;;;9.70;90.80;;;;;;5024835;28;20204;-70
2022/09/19 00:51:24;;;;;;;15.40;14.80;;;9.60;90.90;;;;;;5028013;28;20979;-70
2022/09/19 00:53:51;;;;;;;15.43;14.73;;;9.60;91.10;;;;;;5024913;28;20488;-70
2022/09/19 00:56:19;;;;;;;15.17;14.47;;;9.50;91.30;;;;;;5027927;28;20190;-69
2022/09/19 00:58:47;;;;;;;15.77;15.07;;;9.50;91.20;;;;;;5025122;28;20466;-70
2022/09/19 01:01:17;;;;;;;14.73;14.13;;;9.50;91.30;;;;;;5027262;28;20452;-70
2022/09/19 01:03:46;;;;;;;14.17;13.67;;;9.50;91.60;;;;;;5032468;28;20481;-69
2022/09/19 01:06:27;;;;;;;15.40;14.77;;;9.40;91.50;;;;;;5019872;28;20522;-69
2022/09/19 01:09:23;;;;;;;16.20;15.60;;;9.40;91.40;;;;;;5038883;28;20470;-70
2022/09/19 01:12:32;;;;;;;16.13;15.52;;;9.40;91.10;;;;;;5023382;28;21371;-71
2022/09/19 01:15:21;;;;;;;16.13;15.53;;;9.50;90.70;;;;;;4987154;28;20210;-71
2022/09/19 01:17:49;;;;;;;15.00;14.50;;;9.40;90.80;;;;;;5025233;28;20465;-71
2022/09/19 01:20:55;;;;;;;15.50;14.90;;;9.30;90.70;;;;;;5038533;28;20300;-70
2022/09/19 01:23:44;;;;;;;15.23;14.52;;;9.20;91.00;;;;;;5014783;28;20493;-70
2022/09/19 01:26:32;;;;;;;16.08;15.15;;;9.20;91.20;;;;;;5028646;28;20200;-71
2022/09/19 01:29:07;;;;;;;15.50;14.90;;;9.10;91.40;;;;;;5030801;28;20207;-71
2022/09/19 01:31:38;;;;;;;14.80;14.20;;;9.10;91.70;;;;;;5031783;28;20197;-71
2022/09/19 01:34:11;;;;;;;14.63;14.13;;;9.10;91.90;;;;;;5030228;28;20898;-71
2022/09/19 01:36:43;;;;;;;14.77;14.18;;;9.10;91.80;;;;;;5033062;28;20225;-71
2022/09/19 01:39:12;;;;;;;14.50;13.95;;;9.10;91.70;;;;;;5031892;28;20649;-71
2022/09/19 01:41:38;;;;;;;14.20;13.70;;;9.10;91.60;;;;;;5031654;28;20209;-71
2022/09/19 01:44:17;;;;;;;14.15;13.65;;;9.10;91.70;;;;;;5044075;28;20233;-71
2022/09/19 01:46:52;;;;;;;13.95;13.35;;;9.00;91.90;;;;;;5025282;28;20202;-71
2022/09/19 01:49:32;;;;;;;13.18;12.68;;;9.00;92.00;;;;;;5031260;28;20627;-71
2022/09/19 01:52:06;;;;;;;14.30;13.80;;;9.10;92.00;;;;;;5029336;28;20206;-69
2022/09/19 01:54:43;;;;;;;14.75;14.05;;;9.00;92.60;;;;;;5030335;28;20197;-70
2022/09/19 01:57:20;;;;;;;14.50;13.90;;;9.00;92.80;;;;;;5024892;28;20264;-69
2022/09/19 02:00:06;;;;;;;13.10;12.60;;;9.00;92.60;;;;;;5026591;28;20248;-70
2022/09/19 02:02:43;;;;;;;13.23;12.73;;;8.90;93.00;;;;;;5027053;28;20301;-69
2022/09/19 02:05:14;;;;;;;14.05;13.45;;;8.90;93.10;;;;;;5028706;28;20205;-69
2022/09/19 02:07:47;;;;;;;13.65;13.05;;;8.80;93.30;;;;;;5029897;28;20203;-70
2022/09/19 02:10:20;;;;;;;13.30;12.80;;;8.80;93.70;;;;;;5027828;28;20186;-69
2022/09/19 02:12:52;;;;;;;20.20;19.40;;;8.80;93.50;;;;;;5029417;28;20312;-71
2022/09/19 02:15:23;;;;;;;14.52;13.93;;;8.70;93.70;;;;;;5025289;28;20775;-71
2022/09/19 02:17:56;;;;;;;13.80;13.20;;;8.70;93.90;;;;;;5028401;28;20296;-71
2022/09/19 02:20:26;;;;;;;30.02;28.85;;;8.70;94.00;;;;;;5026064;28;20223;-71
2022/09/19 02:22:58;;;;;;;22.58;21.65;;;8.70;94.20;;;;;;5028604;28;20721;-71
2022/09/19 02:25:30;;;;;;;14.18;13.57;;;8.70;94.20;;;;;;5027834;28;20200;-69
2022/09/19 02:28:00;;;;;;;12.88;12.38;;;8.60;94.10;;;;;;5029589;28;20323;-69
2022/09/19 02:30:29;;;;;;;13.98;13.40;;;8.60;94.20;;;;;;5029409;28;20198;-69
2022/09/19 02:32:57;;;;;;;13.90;13.30;;;8.60;94.20;;;;;;5029257;28;20585;-70
2022/09/19 02:35:32;;;;;;;28.88;27.60;;;8.50;94.30;;;;;;5032297;28;20261;-69
2022/09/19 02:38:07;;;;;;;25.40;24.20;;;8.60;94.60;;;;;;5032962;28;20205;-70
2022/09/19 02:40:38;;;;;;;16.10;15.45;;;8.50;94.60;;;;;;5024161;28;20691;-69
2022/09/19 02:43:14;;;;;;;13.30;12.70;;;8.60;94.20;;;;;;5026425;28;20218;-69
2022/09/19 02:45:46;;;;;;;12.40;11.90;;;8.60;94.40;;;;;;5029672;28;20673;-69
2022/09/19 02:48:20;;;;;;;13.73;12.95;;;8.60;94.30;;;;;;5028875;28;20398;-69
2022/09/19 02:50:54;;;;;;;15.70;15.10;;;8.60;94.50;;;;;;5028987;28;20216;-71
2022/09/19 02:53:26;;;;;;;15.95;15.10;;;8.60;94.10;;;;;;5028235;28;20727;-72
2022/09/19 02:55:57;;;;;;;15.63;15.02;;;8.60;94.20;;;;;;5035129;28;20677;-71
2022/09/19 02:58:27;;;;;;;28.10;26.92;;;8.50;94.30;;;;;;5028496;28;20325;-72
2022/09/19 03:01:00;;;;;;;22.05;21.02;;;8.40;94.60;;;;;;5028063;28;20217;-71
2022/09/19 03:06:20;;;;;;;21.85;20.70;;;8.50;94.30;;;;;;5037747;28;20574;-71
2022/09/19 03:08:51;;;;;;;14.93;14.20;;;8.50;94.00;;;;;;5026391;28;20561;-71
2022/09/19 03:11:22;;;;;;;25.50;24.45;;;8.50;94.00;;;;;;5025804;28;20194;-71
2022/09/19 03:13:49;;;;;;;18.05;17.35;;;8.50;93.70;;;;;;5029920;28;20670;-72
2022/09/19 03:16:20;;;;;;;15.68;15.00;;;8.40;93.80;;;;;;5027741;28;20201;-71
2022/09/19 03:18:48;;;;;;;17.95;17.25;;;8.50;94.00;;;;;;5027413;28;20207;-71
2022/09/19 03:21:21;;;;;;;17.63;16.55;;;8.40;93.60;;;;;;5027157;28;20304;-71
2022/09/19 03:23:50;;;;;;;18.58;17.77;;;8.40;93.80;;;;;;5028990;28;20271;-71
2022/09/19 03:26:20;;;;;;;28.33;27.20;;;8.40;93.90;;;;;;5031708;28;20197;-71
2022/09/19 03:28:47;;;;;;;33.33;32.03;;;8.40;94.00;;;;;;5024320;28;20210;-71
2022/09/19 03:31:16;;;;;;;14.50;13.88;;;8.40;94.00;;;;;;5030027;28;20189;-71
2022/09/19 03:33:46;;;;;;;30.08;28.58;;;8.40;93.90;;;;;;5027154;28;20812;-71
2022/09/19 03:36:13;;;;;;;13.65;12.82;;;8.40;94.10;;;;;;5025882;28;20201;-71
2022/09/19 03:38:44;;;;;;;17.48;16.65;;;8.50;94.10;;;;;;5024551;28;20214;-71
2022/09/19 03:41:11;;;;;;;20.58;19.70;;;8.50;94.20;;;;;;5027298;28;20701;-71
2022/09/19 03:43:38;;;;;;;21.25;20.15;;;8.50;93.80;;;;;;5029274;28;20248;-71
2022/09/19 03:46:05;;;;;;;16.52;15.52;;;8.50;93.70;;;;;;5038252;28;20231;-71
2022/09/19 03:48:32;;;;;;;14.55;13.82;;;8.50;93.90;;;;;;5028538;28;20197;-71
2022/09/19 03:51:01;;;;;;;14.15;13.25;;;8.60;93.80;;;;;;5025619;28;20198;-71
2022/09/19 03:53:28;;;;;;;20.45;19.50;;;8.70;93.00;;;;;;5029209;28;20657;-71
2022/09/19 03:55:56;;;;;;;16.80;15.90;;;8.70;93.00;;;;;;5025181;28;20740;-71
2022/09/19 03:58:24;;;;;;;17.60;16.55;;;8.80;92.90;;;;;;5026145;28;20197;-71
2022/09/19 04:00:51;;;;;;;32.30;30.70;;;8.80;92.40;;;;;;5027627;28;20229;-69
2022/09/19 04:03:19;;;;;;;26.52;25.10;;;8.90;92.50;;;;;;5030266;28;20236;-70
2022/09/19 04:05:46;;;;;;;23.45;22.48;;;8.90;92.00;;;;;;5027841;28;20198;-70
2022/09/19 04:08:14;;;;;;;16.80;15.90;;;9.00;91.70;;;;;;5027781;28;20221;-70
2022/09/19 04:10:42;;;;;;;27.58;26.38;;;9.00;92.00;;;;;;5027783;28;20293;-71
2022/09/19 04:13:09;;;;;;;17.65;16.95;;;9.10;91.60;;;;;;5029534;28;20225;-71
2022/09/19 04:15:36;;;;;;;13.32;12.45;;;9.20;91.30;;;;;;5025610;28;20198;-71
2022/09/19 04:18:03;;;;;;;14.13;13.43;;;9.20;91.40;;;;;;5027358;28;20190;-71
2022/09/19 04:20:30;;;;;;;12.77;11.95;;;9.30;91.30;;;;;;5025927;28;20217;-71
2022/09/19 04:23:00;;;;;;;14.23;13.52;;;9.30;91.20;;;;;;5022732;28;20218;-71
2022/09/19 04:25:34;;;;;;;32.75;31.40;;;9.30;91.00;;;;;;5026174;28;20221;-72
2022/09/19 04:28:03;;;;;;;22.70;21.40;;;9.30;91.00;;;;;;5025501;28;20255;-71
2022/09/19 04:30:31;;;;;;;25.53;24.43;;;9.30;91.20;;;;;;5026545;28;20216;-71
2022/09/19 04:33:02;;;;;;;29.33;27.85;;;9.40;90.60;;;;;;5027368;28;20480;-71
2022/09/19 04:35:32;;;;;;;19.15;17.95;;;9.50;90.20;;;;;;5028213;28;20194;-71
2022/09/19 04:37:58;;;;;;;24.35;23.05;;;9.50;90.30;;;;;;5026973;28;20209;-71
2022/09/19 04:40:25;;;;;;;13.82;13.05;;;9.50;90.20;;;;;;5026752;28;20212;-71
2022/09/19 04:42:53;;;;;;;16.63;15.80;;;9.60;90.00;;;;;;5027492;28;20231;-71
2022/09/19 04:45:20;;;;;;;24.88;23.67;;;9.50;90.00;;;;;;5026843;28;20470;-71
2022/09/19 04:47:48;;;;;;;17.73;16.90;;;9.60;90.20;;;;;;5032134;28;20208;-70
2022/09/19 04:50:17;;;;;;;13.88;12.95;;;9.60;90.20;;;;;;5030820;28;20226;-69
2022/09/19 04:52:44;;;;;;;16.65;15.75;;;9.60;90.20;;;;;;5031861;28;20225;-69
2022/09/19 04:55:11;;;;;;;22.70;21.30;;;9.70;90.10;;;;;;5031419;28;20456;-70
2022/09/19 04:57:38;;;;;;;21.60;20.30;;;9.80;90.00;;;;;;5028758;28;20220;-70
2022/09/19 05:00:07;;;;;;;17.20;16.20;;;9.80;89.30;;;;;;5026516;28;20457;-69
2022/09/19 05:02:34;;;;;;;33.97;32.37;;;9.80;89.50;;;;;;5032384;28;20323;-70
2022/09/19 05:05:01;;;;;;;15.87;14.97;;;9.80;89.20;;;;;;5026881;28;20937;-70
2022/09/19 05:07:33;;;;;;;16.02;14.55;;;9.80;89.20;;;;;;5029991;28;20473;-73
2022/09/19 05:10:01;;;;;;;22.60;20.80;;;9.80;89.90;;;;;;5027644;28;20207;-73
2022/09/19 05:12:28;;;;;;;18.83;17.83;;;9.90;89.60;;;;;;5031057;28;20480;-71
2022/09/19 05:14:55;;;;;;;24.70;23.40;;;9.90;89.40;;;;;;5031784;28;20998;-74
2022/09/19 05:17:25;;;;;;;17.67;16.37;;;9.90;89.50;;;;;;5032031;28;20483;-73
2022/09/19 05:19:52;;;;;;;17.35;16.05;;;9.90;89.90;;;;;;5031142;28;20477;-71
2022/09/19 05:22:19;;;;;;;17.27;16.37;;;9.90;89.90;;;;;;5037549;28;20223;-71
2022/09/19 05:24:46;;;;;;;14.60;13.60;;;10.00;89.80;;;;;;5027407;28;20570;-71
2022/09/19 05:27:13;;;;;;;16.57;15.50;;;10.00;89.40;;;;;;5031321;28;20520;-72
2022/09/19 05:29:40;;;;;;;30.40;29.00;;;10.10;89.30;;;;;;5028154;28;20497;-71
2022/09/19 05:32:07;;;;;;;23.77;22.37;;;10.10;89.00;;;;;;5028862;28;20901;-71
2022/09/19 05:34:35;;;;;;;24.60;23.40;;;10.10;89.10;;;;;;5028986;28;20553;-71
2022/09/19 05:37:02;;;;;;;35.77;33.73;;;10.10;89.70;;;;;;5035029;28;20476;-72
2022/09/19 05:39:29;;;;;;;36.67;34.93;;;10.10;89.10;;;;;;5029695;28;20466;-73
2022/09/19 05:41:56;;;;;;;22.87;21.30;;;10.10;89.10;;;;;;5034031;28;20848;-73
2022/09/19 05:44:23;;;;;;;20.13;18.73;;;10.20;88.90;;;;;;5029835;28;20546;-71
2022/09/19 05:46:51;;;;;;;16.77;15.90;;;10.20;89.00;;;;;;5026788;28;20460;-70
2022/09/19 05:49:18;;;;;;;35.63;33.93;;;10.20;88.70;;;;;;5027808;28;20462;-70
2022/09/19 05:51:46;;;;;;;24.00;22.73;;;10.20;89.10;;;;;;5028346;28;20534;-71
2022/09/19 05:54:12;;;;;;;25.10;23.60;;;10.30;88.40;;;;;;5030054;28;20485;-70
2022/09/19 05:56:40;;;;;;;20.67;19.60;;;10.40;87.90;;;;;;5027203;28;20467;-71
2022/09/19 05:59:08;;;;;;;25.27;23.90;;;10.50;87.60;;;;;;5027380;28;20875;-71
2022/09/19 06:01:37;;;;;;;21.33;20.03;;;10.60;87.20;;;;;;5027661;28;20484;-71
2022/09/19 06:04:04;;;;;;;28.63;27.03;;;10.60;87.10;;;;;;5031177;28;21004;-71
2022/09/19 06:06:31;;;;;;;29.53;28.00;;;10.60;87.20;;;;;;5037246;28;20463;-71
2022/09/19 06:08:59;;;;;;;39.77;37.90;;;10.60;87.00;;;;;;5027249;28;20475;-72
2022/09/19 06:11:27;;;;;;;20.93;19.60;;;10.70;86.70;;;;;;5039345;28;20457;-71
2022/09/19 06:16:39;;;;;;;22.87;21.67;;;10.90;86.60;;;;;;5029140;28;20451;-71
2022/09/19 06:19:07;;;;;;;27.27;25.80;;;10.90;86.20;;;;;;5026449;28;20455;-71
2022/09/19 06:21:34;;;;;;;20.47;19.27;;;10.90;86.50;;;;;;5025805;28;20477;-72
2022/09/19 06:24:02;;;;;;;28.90;27.00;;;11.00;86.40;;;;;;5027824;28;20837;-71
2022/09/19 06:26:29;;;;;;;33.90;32.10;;;11.10;86.10;;;;;;5033488;28;20489;-71
2022/09/19 06:28:56;;;;;;;36.63;35.00;;;11.20;86.00;;;;;;5025274;28;20469;-71
2022/09/19 06:31:23;;;;;;;32.87;31.07;;;11.30;85.60;;;;;;5023385;28;20872;-70
2022/09/19 06:33:50;;;;;;;29.03;27.47;;;11.40;85.50;;;;;;5023013;28;20475;-73
2022/09/19 06:36:17;;;;;;;33.37;30.90;;;11.50;85.20;;;;;;5028638;28;20463;-69
2022/09/19 06:38:44;;;;;;;20.37;18.97;;;11.60;84.70;;;;;;5028409;28;20468;-69
2022/09/19 06:41:13;;;;;;;19.07;17.87;;;11.50;84.90;;;;;;5024509;28;20482;-69
2022/09/19 06:43:40;;;;;;;19.77;18.67;;;11.50;85.60;;;;;;5042341;28;20537;-69
2022/09/19 06:46:09;;;;;;;20.90;19.80;;;11.60;84.80;;;;;;5029876;28;20518;-69
2022/09/19 06:48:36;;;;;;;20.00;18.77;;;11.70;83.80;;;;;;5030163;28;20550;-69
2022/09/19 06:51:03;;;;;;;22.73;21.20;;;11.70;83.60;;;;;;5027379;28;20468;-69
2022/09/19 06:53:30;;;;;;;19.90;18.70;;;11.80;83.30;;;;;;5029682;28;20480;-70
2022/09/19 06:55:57;;;;;;;36.17;34.40;;;11.80;83.70;;;;;;5027112;28;20467;-70
2022/09/19 06:58:26;;;;;;;21.83;20.63;;;11.90;83.20;;;;;;5027538;28;20969;-69
2022/09/19 07:00:53;;;;;;;25.80;24.10;;;11.90;83.40;;;;;;5031706;28;20490;-69
2022/09/19 07:03:21;;;;;;;25.93;24.43;;;12.00;82.60;;;;;;5026151;28;21038;-69
2022/09/19 07:05:48;;;;;;;28.70;27.00;;;12.00;83.00;;;;;;5028641;28;20472;-69
2022/09/19 07:08:15;;;;;;;22.63;21.20;;;12.10;82.60;;;;;;5027878;28;20490;-71
2022/09/19 07:10:42;;;;;;;23.07;21.47;;;12.10;82.50;;;;;;5028268;28;20464;-70
2022/09/19 07:13:13;;;;;;;21.13;20.07;;;12.20;82.20;;;;;;5023031;28;20484;-69
2022/09/19 07:15:42;;;;;;;24.57;22.87;;;12.30;82.50;;;;;;5026299;28;20463;-69
2022/09/19 07:18:10;;;;;;;20.67;19.50;;;12.30;81.60;;;;;;5028266;28;20456;-70
2022/09/19 07:20:38;;;;;;;39.17;37.03;;;12.40;81.70;;;;;;5021223;28;20460;-70
2022/09/19 07:23:07;;;;;;;44.73;41.80;;;12.40;81.50;;;;;;5028266;28;20484;-69
2022/09/19 07:25:34;;;;;;;26.03;24.63;;;12.50;80.90;;;;;;5029050;28;20462;-69
2022/09/19 07:28:03;;;;;;;35.13;33.03;;;12.50;81.40;;;;;;5028217;28;20959;-69
2022/09/19 07:30:31;;;;;;;44.47;42.53;;;12.50;80.50;;;;;;5030867;28;21356;-69
2022/09/19 07:33:01;;;;;;;32.57;31.07;;;12.40;81.00;;;;;;5028395;28;20854;-71
2022/09/19 07:35:35;;;;;;;39.17;37.27;;;12.60;81.00;;;;;;5033168;28;20469;-69
2022/09/19 07:38:02;;;;;;;42.33;40.10;;;12.50;80.40;;;;;;5032217;28;20556;-71
2022/09/19 07:40:29;;;;;;;32.80;31.07;;;12.50;80.90;;;;;;5027318;28;20459;-70
2022/09/19 07:42:59;;;;;;;23.10;21.17;;;12.70;80.50;;;;;;5029183;28;20486;-69
2022/09/19 07:45:26;;;;;;;35.57;33.73;;;12.80;80.60;;;;;;5026236;28;20465;-70
2022/09/19 07:47:52;;;;;;;21.30;20.10;;;12.80;79.70;;;;;;5027200;28;20452;-69
2022/09/19 07:50:21;;;;;;;25.10;23.53;;;12.80;80.20;;;;;;5019871;28;20496;-69
2022/09/19 07:52:48;;;;;;;26.20;24.40;;;12.80;80.50;;;;;;5023142;28;20476;-70
2022/09/19 07:55:15;;;;;;;30.07;27.80;;;12.80;80.60;;;;;;5030066;28;21383;-69
2022/09/19 07:57:50;;;;;;;23.67;22.33;;;12.80;79.80;;;;;;5023797;28;20981;-68
2022/09/19 08:00:18;;;;;;;24.60;23.40;;;12.90;79.90;;;;;;5023863;28;20477;-69
2022/09/19 08:02:53;;;;;;;37.80;35.33;;;13.00;80.10;;;;;;5024645;28;20484;-69
2022/09/19 08:05:21;;;;;;;34.20;32.30;;;13.10;79.00;;;;;;5024951;28;20468;-69
2022/09/19 08:07:48;;;;;;;25.00;23.77;;;13.10;78.40;;;;;;5026979;28;20473;-69
2022/09/19 08:10:16;;;;;;;25.37;23.67;;;13.20;78.80;;;;;;5023070;28;20989;-69
2022/09/19 08:12:44;;;;;;;26.77;24.77;;;13.40;78.60;;;;;;5022476;28;20985;-69
2022/09/19 08:15:15;;;;;;;30.57;28.80;;;13.40;78.20;;;;;;5027577;28;20460;-69
2022/09/19 08:17:43;;;;;;;24.23;22.50;;;13.50;78.10;;;;;;5027139;28;20459;-69
2022/09/19 08:20:12;;;;;;;26.60;25.17;;;13.50;78.20;;;;;;5033014;28;20460;-69
2022/09/19 08:22:40;;;;;;;29.77;27.83;;;13.40;77.50;;;;;;5028404;28;20830;-71
2022/09/19 08:25:08;;;;;;;29.30;27.07;;;13.10;78.50;;;;;;5034149;28;20467;-71
2022/09/19 08:27:37;;;;;;;26.40;25.10;;;13.10;78.90;;;;;;5032433;28;20471;-71
2022/09/19 08:30:04;;;;;;;25.30;23.60;;;13.10;78.80;;;;;;5032169;28;20956;-71
2022/09/19 08:32:31;;;;;;;40.37;38.13;;;13.20;78.80;;;;;;5030439;28;20483;-70
2022/09/19 08:34:58;;;;;;;40.50;38.03;;;13.40;79.00;;;;;;5029587;28;20458;-71
2022/09/19 08:37:25;;;;;;;26.40;24.93;;;13.70;77.90;;;;;;5029198;28;20862;-71
2022/09/19 08:42:44;;;;;;;27.40;25.60;;;14.00;76.70;;;;;;5031554;28;20509;-71
2022/09/19 08:45:19;;;;;;;29.90;27.90;;;14.20;76.00;;;;;;5030580;28;20463;-71
2022/09/19 08:47:47;;;;;;;30.63;28.87;;;14.30;74.60;;;;;;5025321;28;20477;-72
2022/09/19 08:50:21;;;;;;;26.20;24.63;;;14.20;75.60;;;;;;5030067;28;20471;-71
2022/09/19 08:52:51;;;;;;;33.63;31.60;;;14.20;75.80;;;;;;5027935;28;20477;-72
2022/09/19 08:55:23;;;;;;;31.30;29.53;;;14.40;75.80;;;;;;5030119;28;20454;-71
2022/09/19 08:57:54;;;;;;;34.13;32.20;;;14.30;74.70;;;;;;5028468;28;20465;-72
2022/09/19 09:00:23;;;;;;;32.77;30.87;;;14.00;73.70;;;;;;5029702;28;20482;-71
2022/09/19 09:02:56;;;;;;;31.27;29.50;;;13.90;75.50;;;;;;5036609;28;20848;-71
2022/09/19 09:05:36;;;;;;;26.03;24.57;;;14.10;74.30;;;;;;5038097;28;20463;-71
2022/09/19 09:08:10;;;;;;;35.87;33.83;;;14.00;74.70;;;;;;5036690;28;20471;-72
2022/09/19 09:10:50;;;;;;;37.73;35.73;;;13.80;74.60;;;;;;5033331;28;20474;-71
2022/09/19 09:13:32;;;;;;;29.40;27.30;;;13.60;75.30;;;;;;5039000;28;20506;-71
2022/09/19 09:16:07;;;;;;;36.03;34.00;;;13.60;76.10;;;;;;5026426;28;21058;-72
2022/09/19 09:19:00;;;;;;;31.67;30.03;;;13.90;75.60;;;;;;5027215;28;20457;-71
2022/09/19 09:21:39;;;;;;;29.57;27.87;;;14.20;74.50;;;;;;5039827;28;20908;-69
2022/09/19 09:24:14;;;;;;;34.53;32.10;;;14.40;73.60;;;;;;5030418;28;20483;-72
2022/09/19 09:26:45;;;;;;;39.93;37.13;;;14.30;72.70;;;;;;5032861;28;20453;-73
2022/09/19 09:29:22;;;;;;;43.37;41.17;;;14.30;73.50;;;;;;5029748;28;20452;-71
2022/09/19 09:31:56;;;;;;;27.87;26.17;;;14.20;73.60;;;;;;5024567;28;20456;-71
2022/09/19 09:34:27;;;;;;;30.47;28.10;;;14.10;73.80;;;;;;5029719;28;20459;-71
2022/09/19 09:36:58;;;;;;;35.67;34.00;;;14.10;73.90;;;;;;5023163;28;20458;-71
2022/09/19 09:39:32;;;;;;;41.80;39.80;;;14.20;74.10;;;;;;5025371;28;20541;-71
2022/09/19 09:42:04;;;;;;;24.77;23.23;;;14.10;72.60;;;;;;5033679;28;20480;-71
2022/09/19 09:44:47;;;;;;;37.20;35.00;;;14.00;73.40;;;;;;5027965;28;20467;-72
2022/09/19 09:47:21;;;;;;;32.37;30.33;;;14.20;73.60;;;;;;5026612;28;20653;-71
2022/09/19 09:49:51;;;;;;;29.30;27.20;;;14.50;73.10;;;;;;5032080;28;20953;-70
2022/09/19 09:52:33;;;;;;;28.43;26.63;;;14.40;72.70;;;;;;5029815;28;20468;-69
2022/09/19 09:58:18;;;;;;;38.73;36.50;;;14.00;72.60;;;;;;5022387;28;20879;-73
2022/09/19 10:03:44;;;;;;;36.40;34.73;;;13.60;74.10;;;;;;5033133;28;20971;-71
2022/09/19 10:06:16;;;;;;;30.77;29.30;;;13.60;74.80;;;;;;5024487;28;20997;-71
2022/09/19 10:08:47;;;;;;;29.20;27.70;;;13.70;74.30;;;;;;5023729;28;20973;-71
2022/09/19 10:11:17;;;;;;;30.60;28.97;;;13.70;74.00;;;;;;5034316;28;20957;-72
2022/09/19 10:13:58;;;;;;;34.70;32.90;;;13.90;73.30;;;;;;5028149;28;20531;-71
2022/09/19 10:16:25;;;;;;;37.73;35.80;;;14.20;72.20;;;;;;5029441;28;20488;-71
2022/09/19 10:18:55;;;;;;;42.30;39.90;;;14.20;71.80;;;;;;5029331;28;20550;-71
2022/09/19 10:21:22;;;;;;;33.67;31.97;;;14.40;71.70;;;;;;5026332;28;21005;-71
2022/09/19 10:23:48;;;;;;;30.50;29.00;;;14.70;70.70;;;;;;5022606;28;20489;-71
2022/09/19 10:26:19;;;;;;;33.83;31.33;;;14.90;70.50;;;;;;5027096;28;21037;-70
2022/09/19 10:28:52;;;;;;;28.40;27.03;;;15.30;70.20;;;;;;5027488;28;20465;-71
2022/09/19 10:31:31;;;;;;;43.10;40.80;;;15.70;69.60;;;;;;5034096;28;20467;-72
2022/09/19 10:34:04;;;;;;;33.70;31.80;;;15.80;68.40;;;;;;5027573;28;20475;-70
2022/09/19 10:36:34;;;;;;;38.17;36.07;;;16.10;68.60;;;;;;5027788;28;20460;-70
2022/09/19 10:39:09;;;;;;;30.53;29.07;;;16.50;66.70;;;;;;5028223;28;20478;-70
2022/09/19 10:41:37;;;;;;;30.73;29.23;;;16.60;66.20;;;;;;5029225;28;20458;-72
2022/09/19 10:44:09;;;;;;;31.60;29.90;;;16.30;66.50;;;;;;5023636;28;21024;-70
2022/09/19 10:46:44;;;;;;;32.17;30.67;;;15.70;68.00;;;;;;5027724;28;20456;-71
2022/09/19 10:49:20;;;;;;;34.97;33.33;;;15.50;68.90;;;;;;5028374;28;20459;-70
2022/09/19 10:51:50;;;;;;;29.93;28.20;;;15.50;69.70;;;;;;5023960;28;20535;-70
2022/09/19 10:54:30;;;;;;;41.80;39.40;;;15.40;69.80;;;;;;5021947;28;20817;-72
2022/09/19 10:56:59;;;;;;;30.97;29.57;;;15.60;69.90;;;;;;5030409;28;20455;-71
2022/09/19 10:59:36;;;;;;;40.03;37.50;;;15.50;70.30;;;;;;5026978;28;20464;-72
2022/09/19 11:02:19;;;;;;;32.67;31.00;;;15.80;69.60;;;;;;5030225;28;20523;-72
2022/09/19 11:04:56;;;;;;;33.83;32.33;;;16.10;69.20;;;;;;5023650;28;20460;-73
2022/09/19 11:07:27;;;;;;;28.53;26.97;;;16.60;68.60;;;;;;5031737;28;20558;-72
2022/09/19 11:09:59;;;;;;;28.07;26.23;;;16.90;67.00;;;;;;5023929;28;20457;-72
2022/09/19 11:12:27;;;;;;;31.63;30.03;;;16.90;66.90;;;;;;5027907;28;20479;-72
2022/09/19 11:14:56;;;;;;;33.67;32.07;;;16.80;66.00;;;;;;5026780;28;20491;-72
2022/09/19 11:17:51;;;;;;;30.27;28.57;;;16.60;66.90;;;;;;5028469;28;20483;-71
2022/09/19 11:20:30;;;;;;;31.60;30.17;;;16.60;66.20;;;;;;5027584;28;20455;-72
2022/09/19 11:23:31;;;;;;;30.00;28.47;;;16.60;66.30;;;;;;5027679;28;20580;-72
2022/09/19 11:26:08;;;;;;;30.50;28.80;;;16.40;66.60;;;;;;5027890;28;20463;-72
2022/09/19 11:28:48;;;;;;;33.00;31.60;;;16.10;67.40;;;;;;5027307;28;20471;-71
2022/09/19 11:31:24;;;;;;;36.67;34.97;;;15.80;68.00;;;;;;5030450;28;20451;-71
2022/09/19 11:33:57;;;;;;;34.50;32.90;;;15.90;68.20;;;;;;5027200;28;20467;-71
2022/09/19 11:36:45;;;;;;;37.80;35.93;;;15.80;67.70;;;;;;5036726;28;20534;-72
2022/09/19 11:39:17;;;;;;;40.53;38.53;;;15.70;68.50;;;;;;5027729;28;20980;-70
2022/09/19 11:41:57;;;;;;;29.13;27.70;;;15.50;69.00;;;;;;5029902;28;20483;-70
2022/09/19 11:44:39;;;;;;;41.67;39.77;;;15.50;69.70;;;;;;5026879;28;20480;-70
2022/09/19 11:47:25;;;;;;;38.13;36.33;;;15.40;69.40;;;;;;5020734;28;20523;-71
2022/09/19 11:50:18;;;;;;;33.17;31.30;;;15.30;69.50;;;;;;5024866;28;20482;-71
2022/09/19 11:52:57;;;;;;;36.43;34.83;;;15.30;69.70;;;;;;5027372;28;20480;-71
2022/09/19 11:55:38;;;;;;;36.23;34.57;;;15.30;69.30;;;;;;5020116;28;20463;-72
2022/09/19 11:58:13;;;;;;;38.70;36.80;;;15.30;70.00;;;;;;5027575;28;20456;-71
2022/09/19 12:00:53;;;;;;;35.10;33.50;;;15.40;69.50;;;;;;5024609;28;20821;-71
2022/09/19 12:03:38;;;;;;;47.40;45.10;;;15.30;69.70;;;;;;5025713;28;20492;-71
2022/09/19 12:06:22;;;;;;;47.07;44.77;;;15.10;70.60;;;;;;5024660;28;20460;-72
2022/09/19 12:09:12;;;;;;;31.57;30.27;;;15.10;71.40;;;;;;5025581;28;20474;-71
2022/09/19 12:11:42;;;;;;;39.77;38.00;;;15.40;71.40;;;;;;5025992;28;20491;-71
2022/09/19 12:14:17;;;;;;;42.50;40.60;;;15.80;70.40;;;;;;5028308;28;20689;-72
2022/09/19 12:16:50;;;;;;;38.60;36.63;;;16.00;69.50;;;;;;5035162;28;20459;-71
2022/09/19 12:19:23;;;;;;;42.93;40.73;;;16.30;69.10;;;;;;5024590;28;20460;-69
2022/09/19 12:21:53;;;;;;;44.20;42.10;;;16.70;68.20;;;;;;5025713;28;20475;-70
2022/09/19 12:27:15;;;;;;;33.47;31.97;;;17.40;67.10;;;;;;5016557;28;21001;-72
2022/09/19 12:29:48;;;;;;;40.50;38.60;;;17.70;66.40;;;;;;5024350;28;20517;-69
2022/09/19 12:32:23;;;;;;;43.67;41.33;;;17.80;65.60;;;;;;5023117;28;20476;-71
2022/09/19 12:34:59;;;;;;;35.83;34.00;;;18.00;65.60;;;;;;5025745;28;20952;-70
2022/09/19 12:37:36;;;;;;;38.33;36.47;;;18.20;65.10;;;;;;5027528;28;20542;-70
2022/09/19 12:40:13;;;;;;;39.30;37.30;;;18.20;64.30;;;;;;5025249;28;21193;-70
2022/09/19 12:42:45;;;;;;;37.63;35.80;;;18.00;63.90;;;;;;5026978;28;20491;-71
2022/09/19 12:45:17;;;;;;;31.70;30.20;;;18.10;64.40;;;;;;5020570;28;20513;-70
2022/09/19 12:48:04;;;;;;;32.10;30.70;;;18.00;64.40;;;;;;5025931;28;20457;-70
2022/09/19 12:50:37;;;;;;;35.40;33.60;;;17.80;64.60;;;;;;5028752;28;20458;-70
2022/09/19 12:53:23;;;;;;;39.53;37.43;;;17.40;64.60;;;;;;5028257;28;20563;-70
2022/09/19 12:55:59;;;;;;;41.33;39.23;;;17.10;65.30;;;;;;5017949;28;20466;-70
2022/09/19 12:58:31;;;;;;;39.10;37.30;;;16.90;65.20;;;;;;5022202;28;20482;-70
2022/09/19 13:01:14;;;;;;;40.20;38.30;;;16.50;66.50;;;;;;5023323;28;20456;-70
2022/09/19 13:03:47;;;;;;;35.77;34.10;;;16.40;67.40;;;;;;5024779;28;20483;-71
2022/09/19 13:06:20;;;;;;;37.10;35.40;;;16.50;67.10;;;;;;5018505;28;20468;-70
2022/09/19 13:08:53;;;;;;;34.50;32.90;;;16.40;67.20;;;;;;5028403;28;20467;-74
2022/09/19 13:11:27;;;;;;;41.47;39.47;;;16.30;67.60;;;;;;5027041;28;20460;-70
2022/09/19 13:13:56;;;;;;;35.13;33.40;;;16.20;67.40;;;;;;5032115;28;20989;-70